Aviation Digital Data Service (ADDS)

Output produced by METARs form (2146 UTC 01 February 2023)
found at http://www.aviationweather.gov/metar/data/
 
KPNS 012113Z 20007KT 10SM BKN026 BKN042 23/17 A3015 RMK AO2 T02280167
KPNS 012053Z 17007KT 10SM SCT030 23/17 A3015 RMK AO2 SLP210 T02330172 56021
KPNS 012127Z 0121/0218 20007KT P6SM BKN026 BKN040 
     FM020000 03006KT P6SM BKN025 BKN250 
     FM020600 04006KT 5SM BR BKN007 OVC015 
     FM021500 11006KT P6SM BKN015 OVC025